createdAt,value
2022-11-08T00:02:14.952Z,55.70
2022-11-08T00:04:41.735Z,53.50
2022-11-08T00:07:28.732Z,54.40
2022-11-08T00:10:14.103Z,55.40
2022-11-08T00:12:59.665Z,57.50
2022-11-08T00:15:26.392Z,58.00
2022-11-08T00:17:53.156Z,57.30
2022-11-08T00:20:19.847Z,57.00
2022-11-08T00:22:46.547Z,55.90
2022-11-08T00:25:13.304Z,57.90
2022-11-08T00:27:40.049Z,57.80
2022-11-08T00:30:07.092Z,55.20
2022-11-08T00:32:33.970Z,57.60
2022-11-08T00:35:00.692Z,56.00
2022-11-08T00:37:27.443Z,56.90
2022-11-08T00:39:54.103Z,57.20
2022-11-08T00:42:20.806Z,58.20
2022-11-08T00:44:47.550Z,57.80
2022-11-08T00:47:14.265Z,57.60
2022-11-08T00:49:40.938Z,57.20
2022-11-08T00:52:07.593Z,56.60
2022-11-08T00:54:34.315Z,56.80
2022-11-08T00:57:01.228Z,57.30
2022-11-08T00:59:27.917Z,58.70
2022-11-08T01:01:54.630Z,58.00
2022-11-08T01:04:21.601Z,58.20
2022-11-08T01:06:48.327Z,58.90
2022-11-08T01:09:15.177Z,58.50
2022-11-08T01:11:46.340Z,59.00
2022-11-08T01:14:14.058Z,59.40
2022-11-08T01:16:40.793Z,58.70
2022-11-08T01:19:07.578Z,58.50
2022-11-08T01:21:34.212Z,58.50
2022-11-08T01:24:01.040Z,59.10
2022-11-08T01:26:29.105Z,60.60
2022-11-08T01:28:57.182Z,60.60
2022-11-08T01:31:26.595Z,59.60
2022-11-08T01:33:53.997Z,58.40
2022-11-08T01:36:25.895Z,59.20
2022-11-08T01:38:53.476Z,58.90
2022-11-08T01:41:23.626Z,59.50
2022-11-08T01:43:58.098Z,60.00
2022-11-08T01:46:33.978Z,58.90
2022-11-08T01:49:24.141Z,59.40
2022-11-08T01:52:17.462Z,59.20
2022-11-08T01:55:26.297Z,58.20
2022-11-08T01:57:58.902Z,58.90
2022-11-08T02:00:25.573Z,59.70
2022-11-08T02:02:59.935Z,61.00
2022-11-08T02:05:27.554Z,60.10
2022-11-08T02:07:55.412Z,60.80
2022-11-08T02:10:25.455Z,59.00
2022-11-08T02:12:53.567Z,59.90
2022-11-08T02:15:21.310Z,60.60
2022-11-08T02:17:47.990Z,60.20
2022-11-08T02:20:14.939Z,60.00
2022-11-08T02:22:48.800Z,60.00
2022-11-08T02:25:15.542Z,60.80
2022-11-08T02:27:42.191Z,60.00
2022-11-08T02:30:09.566Z,60.20
2022-11-08T02:32:40.661Z,59.80
2022-11-08T02:35:13.116Z,59.20
2022-11-08T02:37:40.172Z,59.60
2022-11-08T02:40:07.765Z,58.60
2022-11-08T02:42:34.562Z,58.90
2022-11-08T02:45:01.394Z,58.90
2022-11-08T02:47:28.033Z,59.10
2022-11-08T02:49:54.686Z,57.10
2022-11-08T02:52:21.338Z,58.80
2022-11-08T02:54:47.992Z,58.70
2022-11-08T02:57:14.759Z,58.70
2022-11-08T02:59:41.400Z,58.00
2022-11-08T03:02:08.127Z,58.60
2022-11-08T03:04:34.845Z,58.40
2022-11-08T03:07:01.572Z,57.30
2022-11-08T03:09:28.221Z,58.30
2022-11-08T03:11:54.868Z,58.10
2022-11-08T03:14:21.619Z,57.00
2022-11-08T03:16:48.247Z,57.70
2022-11-08T03:19:14.969Z,57.80
2022-11-08T03:21:41.603Z,56.60
2022-11-08T03:24:08.826Z,56.50
2022-11-08T03:26:35.446Z,55.50
2022-11-08T03:29:02.048Z,56.30
2022-11-08T03:31:28.737Z,56.30
2022-11-08T03:33:55.374Z,56.90
2022-11-08T03:36:22.064Z,57.50
2022-11-08T03:38:48.707Z,55.10
2022-11-08T03:41:15.360Z,55.30
2022-11-08T03:43:41.988Z,56.00
2022-11-08T03:46:08.621Z,55.30
2022-11-08T03:48:35.214Z,56.40
2022-11-08T03:51:01.903Z,57.20
2022-11-08T03:53:28.676Z,56.20
2022-11-08T03:55:55.312Z,57.30
2022-11-08T03:58:21.928Z,56.40
2022-11-08T04:00:48.547Z,57.10
2022-11-08T04:03:15.220Z,58.10
2022-11-08T04:05:41.937Z,57.70
2022-11-08T04:08:08.571Z,57.60
2022-11-08T04:10:35.254Z,55.80
2022-11-08T04:13:20.769Z,55.90
2022-11-08T04:15:53.088Z,56.40
2022-11-08T04:18:38.376Z,56.00
2022-11-08T04:21:20.040Z,55.30
2022-11-08T04:23:48.690Z,56.60
2022-11-08T04:26:15.958Z,57.40
2022-11-08T04:28:42.986Z,57.00
2022-11-08T04:31:15.725Z,56.70
2022-11-08T04:33:43.201Z,57.30
2022-11-08T04:36:16.814Z,57.40
2022-11-08T04:38:43.492Z,56.20
2022-11-08T04:41:12.710Z,56.20
2022-11-08T04:43:39.783Z,57.40
2022-11-08T04:46:08.748Z,57.60
2022-11-08T04:48:36.123Z,57.90
2022-11-08T04:51:07.119Z,58.50
2022-11-08T04:53:34.097Z,59.50
2022-11-08T04:56:06.997Z,58.80
2022-11-08T04:58:41.286Z,58.50
2022-11-08T05:01:09.617Z,58.10
2022-11-08T05:03:36.351Z,59.70
2022-11-08T05:06:05.818Z,59.70
2022-11-08T05:08:32.686Z,59.50
2022-11-08T05:11:04.420Z,59.40
2022-11-08T05:13:31.349Z,58.50
2022-11-08T05:16:06.162Z,56.90
2022-11-08T05:18:33.435Z,60.10
2022-11-08T05:21:19.591Z,57.80
2022-11-08T05:23:48.708Z,59.10
2022-11-08T05:26:16.443Z,60.90
2022-11-08T05:28:43.118Z,60.80
2022-11-08T05:31:10.432Z,61.30
2022-11-08T05:33:37.205Z,60.90
2022-11-08T05:36:09.116Z,58.70
2022-11-08T05:38:36.178Z,59.60
2022-11-08T05:41:07.467Z,59.00
2022-11-08T05:43:34.122Z,59.20
2022-11-08T05:46:00.795Z,60.10
2022-11-08T05:48:27.795Z,58.80
2022-11-08T05:50:54.843Z,60.50
2022-11-08T05:53:21.665Z,59.20
2022-11-08T05:55:48.958Z,59.90
2022-11-08T05:58:16.599Z,60.00
2022-11-08T06:00:43.231Z,61.30
2022-11-08T06:03:09.975Z,61.40
2022-11-08T06:05:37.953Z,60.80
2022-11-08T06:08:04.903Z,60.40
2022-11-08T06:10:31.564Z,60.30
2022-11-08T06:13:00.757Z,60.40
2022-11-08T06:15:27.667Z,61.00
2022-11-08T06:17:54.334Z,60.40
2022-11-08T06:20:21.049Z,62.00
2022-11-08T06:22:47.844Z,62.30
2022-11-08T06:25:14.505Z,62.10
2022-11-08T06:27:41.082Z,59.70
2022-11-08T06:30:08.559Z,60.60
2022-11-08T06:32:35.523Z,59.90
2022-11-08T06:35:02.203Z,58.80
2022-11-08T06:37:28.796Z,59.60
2022-11-08T06:39:55.446Z,58.70
2022-11-08T06:42:22.118Z,60.20
2022-11-08T06:44:48.694Z,60.00
2022-11-08T06:47:15.291Z,60.20
2022-11-08T06:49:41.888Z,60.30
2022-11-08T06:52:08.562Z,60.30
2022-11-08T06:54:35.202Z,61.50
2022-11-08T06:57:02.211Z,61.70
2022-11-08T06:59:29.167Z,60.50
2022-11-08T07:01:56.928Z,60.30
2022-11-08T07:04:23.898Z,62.10
2022-11-08T07:06:50.792Z,62.60
2022-11-08T07:09:17.481Z,61.90
2022-11-08T07:11:44.096Z,61.30
2022-11-08T07:14:10.743Z,59.80
2022-11-08T07:16:39.044Z,61.20
2022-11-08T07:19:07.584Z,61.00
2022-11-08T07:21:34.279Z,62.10
2022-11-08T07:24:00.904Z,63.20
2022-11-08T07:26:27.572Z,64.00
2022-11-08T07:28:54.185Z,63.80
2022-11-08T07:31:21.585Z,63.00
2022-11-08T07:33:48.216Z,62.50
2022-11-08T07:36:14.943Z,63.20
2022-11-08T07:38:41.604Z,64.90
2022-11-08T07:41:09.488Z,64.10
2022-11-08T07:43:36.095Z,63.30
2022-11-08T07:46:02.795Z,63.80
2022-11-08T07:48:30.677Z,64.70
2022-11-08T07:50:57.457Z,64.60
2022-11-08T07:53:24.416Z,65.50
2022-11-08T07:55:51.085Z,64.90
2022-11-08T07:58:17.803Z,62.90
2022-11-08T08:00:45.535Z,61.80
2022-11-08T08:03:14.085Z,61.70
2022-11-08T08:05:42.938Z,62.00
2022-11-08T08:08:10.499Z,64.60
2022-11-08T08:10:37.380Z,60.50
2022-11-08T08:13:05.052Z,65.00
2022-11-08T08:15:32.285Z,67.00
2022-11-08T08:18:03.596Z,67.00
2022-11-08T08:20:31.117Z,68.40
2022-11-08T08:22:58.026Z,68.60
2022-11-08T08:25:25.363Z,68.90
2022-11-08T08:27:56.810Z,72.10
2022-11-08T08:30:24.291Z,69.00
2022-11-08T08:33:08.236Z,69.60
2022-11-08T08:35:38.724Z,67.00
2022-11-08T08:38:06.788Z,67.70
2022-11-08T08:40:34.132Z,67.40
2022-11-08T08:43:01.120Z,64.10
2022-11-08T08:45:28.170Z,67.10
2022-11-08T08:47:56.099Z,68.40
2022-11-08T08:50:23.163Z,68.20
2022-11-08T08:52:49.859Z,69.90
2022-11-08T08:55:16.758Z,66.00
2022-11-08T08:57:47.657Z,68.60
2022-11-08T09:03:08.173Z,64.20
2022-11-08T09:05:35.443Z,63.30
2022-11-08T09:08:02.066Z,64.70
2022-11-08T09:10:28.994Z,64.00
2022-11-08T09:12:55.920Z,66.00
2022-11-08T09:15:23.028Z,68.20
2022-11-08T09:17:49.681Z,68.00
2022-11-08T09:20:16.296Z,68.80
2022-11-08T09:22:42.971Z,67.10
2022-11-08T09:25:10.397Z,68.10
2022-11-08T09:27:37.099Z,69.50
2022-11-08T09:30:04.663Z,69.80
2022-11-08T09:32:46.497Z,71.00
2022-11-08T09:35:18.011Z,71.50
2022-11-08T09:37:47.163Z,71.60
2022-11-08T09:40:23.974Z,70.60
2022-11-08T09:43:17.963Z,73.00
2022-11-08T09:45:46.495Z,71.10
2022-11-08T09:48:22.624Z,71.30
2022-11-08T09:50:52.003Z,73.00
2022-11-08T09:53:41.431Z,71.00
2022-11-08T09:56:16.575Z,71.20
2022-11-08T09:58:54.410Z,70.00
2022-11-08T10:01:26.988Z,70.40
2022-11-08T10:03:55.506Z,68.90
2022-11-08T10:06:25.113Z,69.30
2022-11-08T10:08:57.902Z,69.10
2022-11-08T10:11:43.585Z,71.10
2022-11-08T10:14:32.389Z,72.10
2022-11-08T10:17:10.979Z,72.10
2022-11-08T10:19:56.294Z,73.60
2022-11-08T10:22:36.159Z,75.10
2022-11-08T10:25:11.583Z,76.00
2022-11-08T10:27:43.235Z,74.40
2022-11-08T10:30:26.269Z,72.30
2022-11-08T10:32:57.090Z,72.30
2022-11-08T10:35:48.456Z,71.90
2022-11-08T10:38:20.523Z,71.40
2022-11-08T10:41:11.025Z,71.50
2022-11-08T10:43:44.768Z,71.50
2022-11-08T10:46:34.496Z,70.20
2022-11-08T10:49:25.051Z,71.50
2022-11-08T10:51:56.441Z,73.10
2022-11-08T10:54:45.142Z,71.60
2022-11-08T10:57:33.251Z,72.60
2022-11-08T11:00:21.889Z,71.80
2022-11-08T11:02:51.452Z,73.30
2022-11-08T11:05:18.175Z,73.30
2022-11-08T11:07:47.011Z,73.40
2022-11-08T11:10:41.735Z,71.40
2022-11-08T11:13:20.105Z,74.10
2022-11-08T11:15:53.722Z,73.40
2022-11-08T11:18:39.321Z,74.70
2022-11-08T11:21:21.486Z,71.10
2022-11-08T11:23:52.549Z,72.20
2022-11-08T11:26:57.463Z,70.90
2022-11-08T11:29:27.151Z,71.90
2022-11-08T11:31:54.932Z,72.30
2022-11-08T11:34:43.170Z,71.20
2022-11-08T11:37:10.634Z,71.30
2022-11-08T11:39:39.647Z,70.50
2022-11-08T11:42:44.542Z,71.40
2022-11-08T11:45:17.381Z,74.90
2022-11-08T11:47:48.054Z,77.20
2022-11-08T11:50:37.210Z,79.40
2022-11-08T11:53:14.446Z,78.40
2022-11-08T11:56:05.652Z,77.40
2022-11-08T11:58:54.757Z,79.40
2022-11-08T12:01:59.337Z,79.50
2022-11-08T12:04:41.464Z,73.60
2022-11-08T12:07:15.079Z,71.60
2022-11-08T12:10:12.584Z,73.40
2022-11-08T12:13:04.657Z,69.00
2022-11-08T12:15:45.046Z,72.50
2022-11-08T12:18:43.097Z,74.30
2022-11-08T12:21:21.817Z,65.20
2022-11-08T12:24:12.084Z,69.40
2022-11-08T12:26:56.897Z,67.40
2022-11-08T12:29:33.803Z,68.50
2022-11-08T12:32:12.754Z,63.50
2022-11-08T12:34:47.580Z,62.80
2022-11-08T12:37:20.304Z,60.20
2022-11-08T12:40:01.153Z,65.80
2022-11-08T12:42:37.317Z,60.70
2022-11-08T12:45:07.321Z,54.60
2022-11-08T12:47:40.859Z,53.10
2022-11-08T12:50:31.766Z,52.60
2022-11-08T12:53:29.240Z,47.90
2022-11-08T12:55:57.826Z,46.40
2022-11-08T12:58:41.791Z,43.80
2022-11-08T13:01:13.935Z,41.80
2022-11-08T13:03:44.158Z,37.70
2022-11-08T13:06:18.029Z,39.10
2022-11-08T13:09:10.631Z,36.30
2022-11-08T13:11:37.398Z,38.00
2022-11-08T13:14:04.341Z,37.10
2022-11-08T13:16:41.241Z,43.00
2022-11-08T13:19:27.374Z,42.10
2022-11-08T13:21:54.247Z,42.40
2022-11-08T13:27:43.845Z,35.50
2022-11-08T13:30:16.388Z,30.10
2022-11-08T13:32:43.107Z,20.90
2022-11-08T13:35:46.519Z,24.40
2022-11-08T13:38:35.392Z,17.40
2022-11-08T13:41:05.199Z,19.00
2022-11-08T13:43:33.772Z,14.40
2022-11-08T13:46:29.590Z,12.50
2022-11-08T13:49:05.284Z,16.50
2022-11-08T13:51:36.453Z,14.70
2022-11-08T13:54:23.474Z,5.20
2022-11-08T13:56:57.852Z,6.00
2022-11-08T13:59:30.510Z,6.00
2022-11-08T14:02:25.261Z,6.90
2022-11-08T14:04:53.989Z,3.00
2022-11-08T14:07:25.399Z,6.40
2022-11-08T14:10:22.584Z,7.10
2022-11-08T14:13:00.922Z,6.00
2022-11-08T14:15:55.504Z,1.00
2022-11-08T14:18:29.994Z,1.00
2022-11-08T14:20:57.091Z,4.30
2022-11-08T14:23:31.923Z,1.00
2022-11-08T14:26:01.844Z,1.00
2022-11-08T14:28:31.691Z,1.00
2022-11-08T14:30:59.909Z,1.00
2022-11-08T14:33:28.560Z,1.00
2022-11-08T14:35:57.605Z,1.00
2022-11-08T14:38:25.438Z,1.00
2022-11-08T14:40:55.382Z,1.00
2022-11-08T14:43:24.506Z,1.00
2022-11-08T14:45:51.929Z,1.00
2022-11-08T14:48:32.278Z,1.00
2022-11-08T14:51:04.596Z,1.00
2022-11-08T14:53:33.953Z,1.00
2022-11-08T14:56:20.794Z,1.00
2022-11-08T14:58:49.132Z,1.00
2022-11-08T15:01:18.919Z,1.00
2022-11-08T15:03:51.344Z,1.00
2022-11-08T15:06:18.504Z,1.00
2022-11-08T15:08:54.735Z,1.00
2022-11-08T15:11:32.722Z,1.00
2022-11-08T15:14:10.604Z,1.00
2022-11-08T15:16:51.847Z,1.00
2022-11-08T15:19:44.470Z,1.00
2022-11-08T15:22:25.258Z,1.00
2022-11-08T15:25:02.098Z,1.00
2022-11-08T15:27:29.146Z,1.00
2022-11-08T15:30:08.605Z,1.00
2022-11-08T15:32:39.825Z,1.00
2022-11-08T15:35:15.166Z,1.00
2022-11-08T15:37:46.640Z,1.00
2022-11-08T15:40:30.554Z,1.00
2022-11-08T15:42:58.024Z,1.70
2022-11-08T15:45:33.188Z,2.40
2022-11-08T15:48:08.982Z,13.00
2022-11-08T15:50:36.515Z,16.70
2022-11-08T15:53:05.060Z,18.90
2022-11-08T15:55:46.575Z,19.30
2022-11-08T15:58:26.263Z,19.80
2022-11-08T16:00:53.116Z,21.50
2022-11-08T16:03:19.801Z,21.40
2022-11-08T16:05:46.604Z,23.70
2022-11-08T16:08:19.822Z,23.90
2022-11-08T16:10:49.206Z,24.10
2022-11-08T16:13:24.581Z,25.40
2022-11-08T16:15:51.320Z,24.10
2022-11-08T16:18:20.130Z,22.90
2022-11-08T16:20:47.345Z,22.50
2022-11-08T16:23:14.802Z,24.20
2022-11-08T16:25:45.560Z,24.80
2022-11-08T16:28:22.267Z,23.40
2022-11-08T16:30:49.156Z,24.90
2022-11-08T16:33:24.269Z,25.70
2022-11-08T16:35:51.700Z,25.40
2022-11-08T16:38:25.068Z,25.40
2022-11-08T16:40:51.910Z,25.40
2022-11-08T16:43:18.761Z,25.80
2022-11-08T16:48:33.154Z,25.30
2022-11-08T16:51:05.099Z,24.70
2022-11-08T16:53:35.036Z,24.00
2022-11-08T16:56:01.880Z,20.60
2022-11-08T16:58:28.797Z,20.90
2022-11-08T17:00:56.385Z,18.00
2022-11-08T17:03:25.062Z,23.10
2022-11-08T17:05:52.532Z,19.20
2022-11-08T17:08:20.385Z,17.30
2022-11-08T17:10:47.654Z,12.80
2022-11-08T17:13:15.879Z,11.90
2022-11-08T17:15:42.726Z,7.90
2022-11-08T17:18:11.983Z,6.90
2022-11-08T17:20:39.081Z,8.20
2022-11-08T17:23:06.584Z,10.80
2022-11-08T17:25:36.283Z,12.00
2022-11-08T17:28:03.135Z,13.90
2022-11-08T17:30:29.904Z,18.90
2022-11-08T17:32:56.556Z,23.40
2022-11-08T17:35:38.578Z,24.30
2022-11-08T17:38:07.876Z,22.60
2022-11-08T17:40:34.750Z,24.20
2022-11-08T17:43:01.484Z,22.50
2022-11-08T17:45:28.230Z,28.50
2022-11-08T17:47:54.952Z,30.40
2022-11-08T17:50:21.742Z,33.50
2022-11-08T17:52:48.490Z,35.00
2022-11-08T17:55:15.227Z,36.00
2022-11-08T17:57:42.026Z,35.70
2022-11-08T18:00:11.085Z,37.30
2022-11-08T18:02:37.946Z,33.20
2022-11-08T18:05:05.108Z,37.50
2022-11-08T18:07:31.804Z,36.50
2022-11-08T18:09:58.608Z,35.20
2022-11-08T18:12:25.257Z,37.70
2022-11-08T18:14:53.767Z,35.70
2022-11-08T18:17:22.303Z,39.50
2022-11-08T18:19:49.057Z,37.60
2022-11-08T18:22:15.788Z,38.20
2022-11-08T18:24:46.024Z,38.10
2022-11-08T18:27:17.797Z,39.20
2022-11-08T18:29:44.469Z,40.90
2022-11-08T18:32:11.172Z,40.80
2022-11-08T18:34:39.598Z,40.00
2022-11-08T18:37:06.238Z,40.90
2022-11-08T18:39:32.977Z,41.80
2022-11-08T18:41:59.799Z,42.40
2022-11-08T18:44:26.537Z,42.50
2022-11-08T18:46:53.317Z,42.10
2022-11-08T18:49:20.011Z,40.30
2022-11-08T18:51:52.025Z,42.80
2022-11-08T18:54:19.960Z,43.50
2022-11-08T18:56:46.727Z,44.90
2022-11-08T18:59:14.107Z,45.00
2022-11-08T19:01:41.115Z,46.10
2022-11-08T19:04:08.480Z,46.10
2022-11-08T19:06:35.385Z,45.90
2022-11-08T19:09:02.290Z,46.80
2022-11-08T19:11:30.525Z,47.00
2022-11-08T19:13:58.645Z,47.90
2022-11-08T19:16:25.527Z,47.20
2022-11-08T19:18:52.264Z,45.90
2022-11-08T19:21:24.449Z,47.50
2022-11-08T19:23:51.888Z,45.40
2022-11-08T19:26:21.651Z,44.00
2022-11-08T19:28:49.421Z,45.60
2022-11-08T19:31:20.848Z,48.00
2022-11-08T19:33:48.637Z,47.00
2022-11-08T19:36:17.816Z,42.40
2022-11-08T19:38:44.991Z,45.30
2022-11-08T19:41:14.600Z,45.00
2022-11-08T19:43:42.447Z,44.10
2022-11-08T19:46:18.499Z,41.80
2022-11-08T19:48:46.836Z,38.40
2022-11-08T19:51:18.780Z,39.80
2022-11-08T19:53:45.577Z,39.30
2022-11-08T19:56:15.419Z,42.90
2022-11-08T19:58:42.338Z,43.20
2022-11-08T20:01:21.358Z,41.70
2022-11-08T20:03:48.916Z,42.70
2022-11-08T20:06:18.849Z,45.00
2022-11-08T20:08:50.904Z,45.60
2022-11-08T20:11:20.344Z,44.90
2022-11-08T20:13:47.441Z,46.50
2022-11-08T20:16:16.330Z,46.90
2022-11-08T20:18:43.381Z,41.50
2022-11-08T20:21:12.160Z,45.40
2022-11-08T20:23:39.063Z,44.30
2022-11-08T20:26:07.596Z,43.80
2022-11-08T20:28:36.326Z,39.60
2022-11-08T20:31:09.345Z,40.00
2022-11-08T20:33:38.348Z,37.90
2022-11-08T20:36:06.828Z,44.90
2022-11-08T20:38:34.340Z,45.30
2022-11-08T20:41:01.031Z,42.80
2022-11-08T20:43:27.940Z,41.50
2022-11-08T20:46:00.149Z,43.60
2022-11-08T20:48:28.703Z,43.20
2022-11-08T20:50:59.876Z,43.60
2022-11-08T20:53:27.066Z,40.10
2022-11-08T20:56:02.869Z,43.60
2022-11-08T20:58:31.278Z,43.60
2022-11-08T21:00:59.173Z,43.90
2022-11-08T21:03:27.016Z,44.40
2022-11-08T21:06:02.107Z,43.00
2022-11-08T21:08:58.417Z,44.40
2022-11-08T21:11:17.310Z,45.00
2022-11-08T21:13:44.751Z,44.60
2022-11-08T21:16:29.286Z,45.70
2022-11-08T21:18:58.427Z,47.10
2022-11-08T21:21:25.875Z,47.60
2022-11-08T21:23:54.495Z,46.00
2022-11-08T21:26:21.807Z,47.20
2022-11-08T21:28:48.727Z,48.90
2022-11-08T21:31:15.818Z,49.00
2022-11-08T21:33:42.675Z,48.20
2022-11-08T21:36:09.899Z,48.20
2022-11-08T21:38:37.815Z,48.50
2022-11-08T21:41:06.400Z,47.30
2022-11-08T21:43:37.704Z,48.60
2022-11-08T21:46:20.418Z,48.80
2022-11-08T21:48:48.305Z,47.60
2022-11-08T21:51:16.223Z,46.30
2022-11-08T21:53:52.409Z,46.40
2022-11-08T21:56:21.169Z,45.90
2022-11-08T21:58:47.824Z,46.00
2022-11-08T22:01:14.683Z,46.80
2022-11-08T22:03:41.425Z,48.70
2022-11-08T22:06:08.195Z,48.50
2022-11-08T22:08:35.009Z,47.30
2022-11-08T22:11:01.900Z,47.80
2022-11-08T22:13:28.544Z,47.50
2022-11-08T22:15:55.415Z,47.30
2022-11-08T22:18:42.924Z,47.40
2022-11-08T22:21:27.539Z,48.60
2022-11-08T22:23:54.219Z,45.40
2022-11-08T22:26:20.976Z,44.50
2022-11-08T22:28:47.744Z,43.90
2022-11-08T22:31:14.579Z,44.10
2022-11-08T22:33:41.231Z,43.40
2022-11-08T22:36:08.165Z,43.50
2022-11-08T22:38:35.009Z,43.50
2022-11-08T22:41:01.857Z,45.30
2022-11-08T22:43:28.528Z,47.90
2022-11-08T22:45:55.236Z,46.70
2022-11-08T22:48:22.813Z,46.70
2022-11-08T22:50:49.506Z,49.00
2022-11-08T22:53:16.504Z,49.80
2022-11-08T22:55:44.995Z,51.20
2022-11-08T22:58:12.388Z,50.70
2022-11-08T23:00:39.087Z,48.60
2022-11-08T23:03:05.829Z,49.90
2022-11-08T23:05:32.543Z,50.90
2022-11-08T23:07:59.214Z,50.50
2022-11-08T23:10:26.112Z,51.30
2022-11-08T23:16:17.324Z,50.90
2022-11-08T23:19:03.914Z,52.80
2022-11-08T23:21:49.828Z,53.90
2022-11-08T23:24:22.337Z,53.40
2022-11-08T23:27:07.501Z,52.50
2022-11-08T23:29:52.830Z,53.60
2022-11-08T23:32:19.440Z,54.40
2022-11-08T23:34:46.091Z,55.70
2022-11-08T23:37:12.819Z,57.30
2022-11-08T23:39:59.416Z,55.50
2022-11-08T23:42:44.629Z,55.20
2022-11-08T23:45:11.449Z,55.80
2022-11-08T23:47:38.109Z,56.40
2022-11-08T23:50:05.241Z,56.60
2022-11-08T23:52:32.947Z,56.00
2022-11-08T23:54:59.732Z,56.50
2022-11-08T23:57:26.493Z,56.80
2022-11-08T23:59:53.092Z,57.10
